ADDS METAR Data INFO
IDs: Format: Raw Decoded Include TAF

Data at: 0938 UTC 25 Jun 2018

KAGS 250853Z AUTO 09003KT 9SM CLR A3006 RMK AO2 SLPNO 53007 $
KAGS 250810Z AUTO 00000KT 6SM HZ CLR A3003 RMK AO2 $
KAGS 250753Z AUTO 00000KT 2SM BR FEW003 A3003 RMK AO2 SLPNO $
KAGS 250653Z AUTO 00000KT 4SM HZ CLR A3002 RMK AO2 SLPNO $
KAGS 250553Z AUTO 18004KT 10SM CLR A3004 RMK AO2 SLPNO 60157 56010 $
KAGS 250453Z AUTO 00000KT 10SM FEW095 FEW120 A3005 RMK AO2 LTG DSNT E RAE22 TSB32E47 SLPNO P0000 403560217 $
KAGS 250438Z AUTO 05004KT 10SM TS FEW090 SCT110 A3005 RMK AO2 LTG DSNT E-S RAE22 TSB32 P0000 $
KAGS 250353Z AUTO 20004KT 10SM VCTS -RA SCT110 A3003 RMK AO2 LTG DSNT NE-SE RAB0259E33B53 TSE32 SLPNO P0012 $
KAGS 250338Z AUTO 13007KT 10SM VCTS BKN110 A3003 RMK AO2 LTG DSNT ALQDS RAB0259E33 TSE32 P0012 $
KAGS 250253Z TS A3007 RMK AO2 PK WND 27047/0228 WSHFT 0203 LTG DSNT ALQDS RAB11RAEMM TSE30 SLPNO P0145 60145 53041 RVRNO $
KAGS 250247Z 3/4SM +TSRA A3008 RMK AO2 PK WND 27047/0228 WSHFT 0203 LTG DSNT ALQDS RAB11 TSE30 P0145 RVRNO $
KAGS 250224Z 34013G33KT 3/4SM +TSRA SCT017 BKN037 OVC055 26/21 A3012 RMK AO2 PK WND 32036/0209 WSHFT 0203 LTG DSNT ALQDS RAB11 P0017 T02610211 RVRNO $
KAGS 250218Z 35026G36KT 2 1/2SM +TSRA SCT037 BKN047 OVC055 26/22 A3007 RMK AO2 PK WND 32036/0209 WSHFT 0203 VIS 1 1/2V5 LTG DSNT ALQDS RAB11 P0002 T02610217 $
KAGS 250153Z 23007KT 10SM TS BKN055 29/24 A3000 RMK AO2 LTG DSNT W-NE TSB52 SLP155 T02940244
KAGS 250053Z 25004KT 10SM CLR 30/24 A2998 RMK AO2 LTG DSNT W AND NW SLP151 T03000244
KAGS 242353Z 23005KT 10SM CLR 32/23 A2995 RMK AO2 SLP141 T03220233 10356 20322 55000
KAGS 242253Z COR 24006KT 10SM SCT050 34/22 A2995 RMK AO2 SLP140 T03390222
KAGS 242153Z 22010KT 10SM CLR 35/22 A2993 RMK AO2 SLP133 T03500222
KAGS 242053Z 25006KT 10SM SCT060 35/22 A2995 RMK AO2 SLP141 T03500222 56013
KAGS 241953Z 25008KT 10SM SCT055 34/23 A2995 RMK AO2 SLP141 T03440228
KAGS 241853Z 25009KT 210V280 10SM SCT050 35/23 A2997 RMK AO2 SLP147 T03500228
KAGS 241753Z 28006KT 10SM SCT050 SCT065 35/22 A2999 RMK AO2 SLP153 T03500222 10350 20250 58007
KAGS 241653Z 25008KT 10SM FEW048 SCT065 34/22 A3000 RMK AO2 SLP157 T03440222
KAGS 241553Z 24009KT 10SM FEW045 SCT055 33/23 A3001 RMK AO2 SLP160 T03330228
KAGS 241453Z 25006KT 10SM CLR 32/24 A3001 RMK AO2 SLP160 T03170239 50005
KAGS 241353Z 28004KT 10SM CLR 29/24 A3001 RMK AO2 SLP162 T02890239
KAGS 241253Z 22003KT 10SM CLR 26/24 A3001 RMK AO2 SLP160 T02610239
KAGS 241153Z 00000KT 10SM CLR 25/24 A3000 RMK AO2 SLP155 70005 T02500239 10250 20217 53013
KAGS 241053Z 15004KT 5SM BR CLR 23/23 A2998 RMK AO2 SLP150 T02280228
KAGS 241043Z 15004KT 5SM BR CLR 23/22 A2997 RMK AO2 T02280222
KAGS 241034Z AUTO 15004KT 4SM BR CLR 22/22 A2997 RMK AO2 T02170217
KAGS 241027Z AUTO 00000KT 2 1/2SM BR CLR 22/22 A2997 RMK AO2 T02220217
KAGS 241018Z AUTO 17003KT 1 1/4SM BR FEW005 22/22 A2997 RMK AO2 T02220222
KAGS 241009Z AUTO 15003KT 3/4SM BR VV005 22/22 A2997 RMK AO2 T02220222 RVRNO
KAGS 241004Z AUTO 00000KT 1 1/4SM BR FEW005 22/22 A2997 RMK AO2 T02220222
KAGS 240953Z AUTO 00000KT 1/2SM FG VV005 22/22 A2996 RMK AO2 SLP144 T02220222 RVRNO
KAGS 240931Z AUTO 00000KT 1 3/4SM BR CLR 22/22 A2996 RMK AO2 T02220222
KAGS 240853Z AUTO 00000KT 4SM BR CLR 23/22 A2996 RMK AO2 SLP142 T02280222 51001
KAGS 240845Z AUTO 16004KT 2 1/2SM BR FEW004 22/22 A2995 RMK AO2 T02220222
KAGS 240834Z AUTO 18004KT 1SM BR VV004 22/22 A2996 RMK AO2 T02220222 RVRNO
KAGS 240817Z AUTO 00000KT 1 1/2SM BR CLR 23/23 A2996 RMK AO2 T02280228
KAGS 240753Z AUTO 00000KT 4SM BR CLR 23/23 A2996 RMK AO2 SLP143 T02280228
KAGS 240653Z AUTO 11003KT 3SM BR CLR 23/23 A2996 RMK AO2 SLP142 T02330233
KAGS 240553Z AUTO 00000KT 10SM CLR 24/24 A2995 RMK AO2 SLP139 T02440239 10278 20244 51004
KAGS 240453Z AUTO 24006KT 10SM CLR 25/24 A2994 RMK AO2 SLP137 T02500239
KAGS 240353Z AUTO 24005KT 10SM CLR 25/24 A2995 RMK AO2 SLP139 T02500239
KAGS 240253Z 25007KT 10SM CLR 26/24 A2994 RMK AO2 SLP135 T02560239 53014
KAGS 240153Z 21007KT 10SM CLR 26/24 A2991 RMK AO2 SLP126 T02560239
KAGS 240053Z 23007KT 10SM CLR 27/24 A2991 RMK AO2 SLP125 T02670239
KAGS 232353Z 23006KT 10SM CLR 28/24 A2989 RMK AO2 SLP121 60005 T02780239 10328 20239 56008
KAGS 232253Z 23006KT 10SM CLR 28/24 A2989 RMK AO2 SLPNO T02830239
KAGS 232153Z 22007KT 10SM FEW060 27/23 A2991 RMK AO2 LTG DSNT N AND NW SLPNO T02720233